Wetterdaten: Woche 27.03.06 - 02.04.06 (KW13)
Datum Zeit Temperatur Luftfeuchte Niederschlag Windrichtung Wind
27.03.2006 00:00 8,7 C 88 % 0,0 l/m N 0,0 km/h (0 Bft)
27.03.2006 01:00 8,6 C 90 % 0,0 l/m N 0,0 km/h (0 Bft)
27.03.2006 02:00 8,4 C 91 % 0,0 l/m N 0,0 km/h (0 Bft)
27.03.2006 03:00 8,3 C 91 % 0,0 l/m N 0,0 km/h (0 Bft)
27.03.2006 04:00 7,9 C 92 % 0,0 l/m O 1,2 km/h (1 Bft)
27.03.2006 05:00 7,2 C 92 % 0,0 l/m O-NO 2,9 km/h (1 Bft)
27.03.2006 06:00 6,4 C 90 % 0,0 l/m O 0,1 km/h (0 Bft)
27.03.2006 07:00 6,5 C 86 % 0,0 l/m O 8,3 km/h (2 Bft)
27.03.2006 08:00 8,5 C 78 % 0,0 l/m S 6,5 km/h (2 Bft)
27.03.2006 09:00 9,8 C 75 % 0,0 l/m S-SW 2,3 km/h (1 Bft)
27.03.2006 10:00 13,1 C 62 % 0,0 l/m S-SW 14,1 km/h (3 Bft)
27.03.2006 11:00 16,6 C 49 % 0,0 l/m S-SW 17,4 km/h (3 Bft)
27.03.2006 12:00 18,7 C 42 % 0,0 l/m S-SW 20,2 km/h (4 Bft)
27.03.2006 13:00 18,9 C 40 % 0,0 l/m SW 19,1 km/h (3 Bft)
27.03.2006 14:00 18,8 C 40 % 0,0 l/m W-SW 14,0 km/h (3 Bft)
27.03.2006 15:00 20,0 C 37 % 0,0 l/m W-SW 17,2 km/h (3 Bft)
27.03.2006 16:00 20,2 C 36 % 0,0 l/m SW 16,9 km/h (3 Bft)
27.03.2006 17:00 19,3 C 38 % 0,0 l/m S-SW 13,6 km/h (3 Bft)
27.03.2006 18:00 18,5 C 39 % 0,0 l/m SW 10,9 km/h (2 Bft)
27.03.2006 19:00 17,2 C 40 % 0,0 l/m W-SW 7,8 km/h (2 Bft)
27.03.2006 20:00 15,7 C 46 % 0,0 l/m W-SW 15,2 km/h (3 Bft)
27.03.2006 21:00 11,3 C 75 % 1,0 l/m W 18,8 km/h (3 Bft)
27.03.2006 22:00 10,0 C 87 % 0,0 l/m W 10,0 km/h (2 Bft)
27.03.2006 23:00 9,6 C 94 % 0,0 l/m S-SW 16,6 km/h (3 Bft)
28.03.2006 00:00 9,4 C 97 % 1,0 l/m S-SW 22,1 km/h (4 Bft)
28.03.2006 01:00 9,5 C 95 % 0,0 l/m SW 21,6 km/h (4 Bft)
28.03.2006 02:00 9,7 C 93 % 0,0 l/m S-SW 18,8 km/h (3 Bft)
28.03.2006 03:00 9,6 C 92 % 0,0 l/m S-SW 9,6 km/h (2 Bft)
28.03.2006 04:00 9,3 C 94 % 1,0 l/m W-SW 7,6 km/h (2 Bft)
28.03.2006 05:00 9,1 C 96 % 1,0 l/m W-SW 8,3 km/h (2 Bft)
28.03.2006 06:00 8,6 C 95 % 2,0 l/m W-SW 8,4 km/h (2 Bft)
28.03.2006 07:00 8,1 C 95 % 1,0 l/m W-SW 4,9 km/h (1 Bft)
28.03.2006 08:00 7,6 C 95 % 1,0 l/m W-SW 9,2 km/h (2 Bft)
28.03.2006 09:00 7,1 C 91 % 1,0 l/m S-SW 9,1 km/h (2 Bft)
28.03.2006 10:00 7,1 C 97 % 1,0 l/m S-SW 15,6 km/h (3 Bft)
28.03.2006 11:00 7,3 C 99 % 1,0 l/m S-SW 17,7 km/h (3 Bft)
28.03.2006 12:00 7,3 C 99 % 1,0 l/m S 19,7 km/h (3 Bft)
28.03.2006 13:00 7,0 C 99 % 1,0 l/m S-SW 17,8 km/h (3 Bft)
28.03.2006 14:00 7,5 C 98 % 0,0 l/m S-SW 16,5 km/h (3 Bft)
28.03.2006 15:00 7,3 C 93 % 1,0 l/m SW 14,4 km/h (3 Bft)
28.03.2006 16:00 6,8 C 94 % 2,0 l/m SW 13,2 km/h (3 Bft)
28.03.2006 17:00 6,7 C 95 % 0,0 l/m S-SW 11,7 km/h (2 Bft)
28.03.2006 18:00 6,4 C 96 % 1,0 l/m SW 14,3 km/h (3 Bft)
28.03.2006 19:00 6,0 C 90 % 0,0 l/m W-SW 18,0 km/h (3 Bft)
28.03.2006 20:00 5,8 C 91 % 0,0 l/m S-SW 11,8 km/h (2 Bft)
28.03.2006 21:00 5,5 C 93 % 0,0 l/m S-SW 13,1 km/h (3 Bft)
28.03.2006 22:00 5,3 C 88 % 0,0 l/m SW 15,2 km/h (3 Bft)
28.03.2006 23:00 5,0 C 85 % 0,0 l/m SW 15,1 km/h (3 Bft)
29.03.2006 00:00 4,8 C 87 % 0,0 l/m SW 14,9 km/h (3 Bft)
29.03.2006 01:00 4,6 C 86 % 0,0 l/m W-SW 17,2 km/h (3 Bft)
29.03.2006 02:00 4,4 C 86 % 0,0 l/m W-SW 19,3 km/h (3 Bft)
29.03.2006 03:00 3,8 C 86 % 0,0 l/m SW 19,1 km/h (3 Bft)
29.03.2006 04:00 3,4 C 88 % 0,0 l/m SW 17,9 km/h (3 Bft)
29.03.2006 05:00 3,4 C 87 % 0,0 l/m SW 16,8 km/h (3 Bft)
29.03.2006 06:00 3,4 C 91 % 1,0 l/m SW 13,0 km/h (3 Bft)
29.03.2006 07:00 3,5 C 94 % 0,0 l/m SW 15,7 km/h (3 Bft)
29.03.2006 08:00 4,0 C 90 % 0,0 l/m SW 15,1 km/h (3 Bft)
29.03.2006 09:00 5,1 C 80 % 0,0 l/m W-SW 19,3 km/h (3 Bft)
29.03.2006 10:00 6,8 C 71 % 0,0 l/m SW 25,6 km/h (4 Bft)
29.03.2006 11:00 7,2 C 70 % 0,0 l/m W-SW 23,8 km/h (4 Bft)
29.03.2006 12:00 6,9 C 70 % 0,0 l/m SW 22,7 km/h (4 Bft)
29.03.2006 13:00 7,5 C 67 % 0,0 l/m SW 21,2 km/h (4 Bft)
29.03.2006 14:00 8,5 C 60 % 0,0 l/m SW 20,5 km/h (4 Bft)
29.03.2006 15:00 9,1 C 55 % 0,0 l/m SW 19,3 km/h (3 Bft)
29.03.2006 16:00 9,3 C 57 % 0,0 l/m SW 22,3 km/h (4 Bft)
29.03.2006 17:00 9,6 C 55 % 0,0 l/m W-SW 18,7 km/h (3 Bft)
29.03.2006 18:00 9,2 C 61 % 0,0 l/m W-SW 14,2 km/h (3 Bft)
29.03.2006 19:00 8,4 C 63 % 0,0 l/m W-SW 12,4 km/h (3 Bft)
29.03.2006 20:00 7,2 C 70 % 0,0 l/m W-SW 10,9 km/h (2 Bft)
29.03.2006 21:00 6,4 C 76 % 0,0 l/m S-SW 11,1 km/h (2 Bft)
29.03.2006 22:00 5,9 C 81 % 0,0 l/m S-SW 12,1 km/h (2 Bft)
29.03.2006 23:00 5,7 C 82 % 0,0 l/m S-SW 10,1 km/h (2 Bft)
30.03.2006 00:00 4,5 C 86 % 0,0 l/m S 6,6 km/h (2 Bft)
30.03.2006 01:00 3,5 C 90 % 0,0 l/m S 2,3 km/h (1 Bft)
30.03.2006 02:00 2,7 C 93 % 0,0 l/m S-SO 2,9 km/h (1 Bft)
30.03.2006 03:00 2,5 C 95 % 0,0 l/m S-SW 7,5 km/h (2 Bft)
30.03.2006 04:00 3,6 C 88 % 0,0 l/m S-SW 10,6 km/h (2 Bft)
30.03.2006 05:00 2,3 C 90 % 0,0 l/m S-SW 11,4 km/h (2 Bft)
30.03.2006 06:00 3,4 C 86 % 0,0 l/m S 8,2 km/h (2 Bft)
30.03.2006 07:00 2,9 C 86 % 0,0 l/m N 0,2 km/h (0 Bft)
30.03.2006 08:00 3,8 C 80 % 0,0 l/m S-SW 10,6 km/h (2 Bft)
30.03.2006 09:00 5,0 C 72 % 0,0 l/m S-SW 15,2 km/h (3 Bft)
30.03.2006 10:00 6,6 C 67 % 0,0 l/m S-SW 20,0 km/h (4 Bft)
30.03.2006 11:00 7,2 C 71 % 0,0 l/m SW 24,5 km/h (4 Bft)
30.03.2006 12:00 7,0 C 78 % 0,0 l/m SW 25,7 km/h (4 Bft)
30.03.2006 13:00 7,2 C 86 % 0,0 l/m SW 22,9 km/h (4 Bft)
30.03.2006 14:00 7,6 C 87 % 0,0 l/m S-SW 23,4 km/h (4 Bft)
30.03.2006 15:00 8,6 C 82 % 0,0 l/m SW 20,6 km/h (4 Bft)
30.03.2006 16:00 9,0 C 85 % 0,0 l/m W-SW 25,5 km/h (4 Bft)
30.03.2006 17:00 9,2 C 85 % 0,0 l/m S-SW 23,4 km/h (4 Bft)
30.03.2006 18:00 9,5 C 84 % 0,0 l/m SW 20,3 km/h (4 Bft)
30.03.2006 19:00 9,8 C 83 % 21,0 l/m W-SW 23,0 km/h (4 Bft)
30.03.2006 20:00 9,7 C 83 % 0,0 l/m S-SW 23,4 km/h (4 Bft)
30.03.2006 21:00 9,0 C 88 % 0,0 l/m SW 19,1 km/h (3 Bft)
30.03.2006 22:00 9,2 C 87 % 0,0 l/m S-SW 19,1 km/h (3 Bft)
30.03.2006 23:00 9,5 C 87 % 0,0 l/m S-SW 18,3 km/h (3 Bft)
31.03.2006 00:00 9,6 C 92 % 0,0 l/m W-SW 19,5 km/h (3 Bft)
31.03.2006 01:00 9,4 C 96 % 0,0 l/m S-SW 21,1 km/h (4 Bft)
31.03.2006 02:00 9,5 C 95 % 0,0 l/m S-SW 20,3 km/h (4 Bft)
31.03.2006 03:00 9,5 C 95 % 1,0 l/m S-SW 20,0 km/h (4 Bft)
31.03.2006 04:00 9,7 C 94 % 0,0 l/m SW 22,9 km/h (4 Bft)
31.03.2006 05:00 9,7 C 93 % 0,0 l/m SW 19,9 km/h (4 Bft)
31.03.2006 06:00 9,4 C 92 % 0,0 l/m SW 22,6 km/h (4 Bft)
31.03.2006 07:00 9,1 C 90 % 2,0 l/m W-SW 17,6 km/h (3 Bft)
31.03.2006 08:00 8,8 C 88 % 0,0 l/m S-SW 14,5 km/h (3 Bft)
31.03.2006 09:00 10,2 C 83 % 0,0 l/m SW 20,6 km/h (4 Bft)
31.03.2006 10:00 12,1 C 67 % 0,0 l/m W-SW 28,4 km/h (4 Bft)
31.03.2006 11:00 13,1 C 57 % 0,0 l/m SW 32,1 km/h (5 Bft)
31.03.2006 12:00 12,5 C 60 % 0,0 l/m S-SW 27,7 km/h (4 Bft)
31.03.2006 13:00 14,8 C 44 % 0,0 l/m S-SW 31,9 km/h (5 Bft)
31.03.2006 14:00 15,6 C 40 % 0,0 l/m S 32,2 km/h (5 Bft)
31.03.2006 15:00 15,2 C 40 % 0,0 l/m SW 27,5 km/h (4 Bft)
31.03.2006 16:00 14,8 C 39 % 0,0 l/m SW 25,8 km/h (4 Bft)
31.03.2006 17:00 15,3 C 38 % 0,0 l/m S-SW 26,8 km/h (4 Bft)
31.03.2006 18:00 15,1 C 37 % 0,0 l/m S-SW 25,3 km/h (4 Bft)
31.03.2006 19:00 13,6 C 39 % 0,0 l/m S-SW 18,2 km/h (3 Bft)
31.03.2006 20:00 12,2 C 44 % 0,0 l/m SW 12,5 km/h (3 Bft)
31.03.2006 21:00 10,6 C 51 % 0,0 l/m S-SO 8,6 km/h (2 Bft)
31.03.2006 22:00 9,3 C 54 % 0,0 l/m S 7,8 km/h (2 Bft)
31.03.2006 23:00 8,5 C 57 % 0,0 l/m S 7,3 km/h (2 Bft)
01.04.2006 00:00 7,6 C 60 % 0,0 l/m S-SW 2,7 km/h (1 Bft)
01.04.2006 01:00 8,2 C 63 % 0,0 l/m S-SO 6,7 km/h (2 Bft)
01.04.2006 02:00 6,4 C 67 % 0,0 l/m S-SO 0,6 km/h (0 Bft)
01.04.2006 03:00 5,9 C 76 % 0,0 l/m O-SO 2,5 km/h (1 Bft)
01.04.2006 04:00 5,7 C 78 % 0,0 l/m N 0,1 km/h (0 Bft)
01.04.2006 05:00 5,3 C 81 % 0,0 l/m N 0,0 km/h (0 Bft)
01.04.2006 06:00 4,7 C 84 % 0,0 l/m N 0,0 km/h (0 Bft)
01.04.2006 07:00 4,6 C 86 % 0,0 l/m N 0,0 km/h (0 Bft)
01.04.2006 08:00 5,6 C 88 % 0,0 l/m O 1,0 km/h (0 Bft)
01.04.2006 09:00 8,4 C 82 % 0,0 l/m SO 8,2 km/h (2 Bft)
01.04.2006 10:00 12,6 C 57 % 0,0 l/m SO 13,4 km/h (3 Bft)
01.04.2006 11:00 15,3 C 44 % 0,0 l/m S-SO 16,3 km/h (3 Bft)
01.04.2006 12:00 15,9 C 41 % 0,0 l/m S 17,3 km/h (3 Bft)
01.04.2006 13:00 16,8 C 38 % 0,0 l/m S-SO 20,6 km/h (4 Bft)
01.04.2006 14:00 17,2 C 37 % 0,0 l/m S-SO 19,3 km/h (3 Bft)
01.04.2006 15:00 17,2 C 36 % 0,0 l/m S 21,2 km/h (4 Bft)
01.04.2006 16:00 16,8 C 36 % 0,0 l/m S 18,2 km/h (3 Bft)
01.04.2006 17:00 16,0 C 39 % 0,0 l/m S 18,7 km/h (3 Bft)
01.04.2006 18:00 10,4 C 74 % 2,0 l/m SW 22,0 km/h (4 Bft)
01.04.2006 19:00 9,0 C 83 % 0,0 l/m S 17,9 km/h (3 Bft)
01.04.2006 20:00 9,4 C 76 % 0,0 l/m S-SW 18,1 km/h (3 Bft)
02.04.2006 15:00 12,5 C 53 % 0,0 l/m S 15,8 km/h (3 Bft)
02.04.2006 16:00 12,6 C 53 % 0,0 l/m W 6,0 km/h (2 Bft)
02.04.2006 17:00 11,5 C 65 % 3,0 l/m W-SW 20,1 km/h (4 Bft)
02.04.2006 18:00 9,8 C 76 % 0,0 l/m W-SW 16,4 km/h (3 Bft)
02.04.2006 19:00 9,8 C 72 % 0,0 l/m SW 18,2 km/h (3 Bft)
02.04.2006 20:00 9,2 C 76 % 0,0 l/m S-SW 13,3 km/h (3 Bft)
02.04.2006 21:00 9,3 C 78 % 0,0 l/m SW 15,7 km/h (3 Bft)
02.04.2006 22:00 8,4 C 89 % 0,0 l/m SW 10,1 km/h (2 Bft)
02.04.2006 23:00 8,1 C 91 % 0,0 l/m W-SW 13,5 km/h (3 Bft)
Min-Datum _ 30.03.06 27.03.06 - - 27.03.06
_ Min-Zeit 05:28 16:34 - - 00:01
Minimum _ 1,9 C 35 % - - 0,0 km/h (0 Bft)
Max-Datum _ 27.03.06 28.03.06 30.03.06 - 31.03.06
_ Max-Zeit 15:45 11:21 19:41 - 14:17
Maximum _ 20,7 C 100 % 21,0 l/m - 58,0 km/h
S (7 Bft)
Durchschnitt _ 9,2 C 75 % #47,0 l/m SW 14,9 km/h (3 Bft)

Durchschnitt Minimum Temp.8,7 C
Durchschnitt Maximum Temp.9,6 C